Time;durP1;ratioP1;P1;durP2;ratioP2;P2;SDS_P1;SDS_P2;PMS_P1;PMS_P2;Temp;Humidity;BMP_temperature;BMP_pressure;BME280_temperature;BME280_humidity;BME280_pressure;Samples;Min_cycle;Max_cycle;Signal;HPM_P1;HPM_P2
2021/12/25 00:00:54;;;;;;;16.67;14.97;;;13.20;81.40;;;-142.21;100.00;112049.66;5112595;28;21017;-74
2021/12/25 00:03:22;;;;;;;11.70;10.50;;;13.10;81.20;;;-142.21;100.00;112049.66;5122323;27;21052;-74
2021/12/25 00:05:52;;;;;;;16.73;15.03;;;13.20;80.90;;;-142.21;100.00;112049.66;5114532;28;20525;-74
2021/12/25 00:08:19;;;;;;;16.60;14.90;;;13.20;80.80;;;-142.21;100.00;112049.66;5111493;27;20449;-74
2021/12/25 00:10:47;;;;;;;18.13;16.00;;;13.20;80.90;;;-142.21;100.00;112049.66;5114575;28;20452;-74
2021/12/25 00:13:15;;;;;;;14.50;13.03;;;13.20;80.80;;;-142.21;100.00;112049.66;5115428;27;20540;-74
2021/12/25 00:15:43;;;;;;;17.53;15.60;;;13.20;80.90;;;-142.21;100.00;112049.66;5116995;27;20817;-74
2021/12/25 00:18:10;;;;;;;17.90;15.87;;;13.20;80.80;;;-142.21;100.00;112049.66;5113948;28;20454;-74
2021/12/25 00:20:39;;;;;;;17.97;15.43;;;13.20;81.50;;;-142.21;100.00;112049.66;5108045;28;20463;-74
2021/12/25 00:23:07;;;;;;;16.37;14.50;;;13.20;80.80;;;-142.21;100.00;112049.66;5117869;27;20543;-74
2021/12/25 00:25:40;;;;;;;21.43;16.67;;;13.20;80.90;;;-142.21;100.00;112049.66;5113849;28;20479;-74
2021/12/25 00:28:22;;;;;;;15.73;14.13;;;13.20;80.60;;;-142.21;100.00;112049.66;5114001;27;20791;-73
2021/12/25 00:31:05;;;;;;;13.73;12.20;;;13.20;80.50;;;-142.21;100.00;112049.66;5113251;27;20474;-74
2021/12/25 00:33:49;;;;;;;16.67;14.90;;;13.20;80.30;;;-142.21;100.00;112049.66;5114103;28;20434;-74
2021/12/25 00:36:22;;;;;;;15.27;13.57;;;13.10;80.10;;;-142.21;100.00;112049.66;5118272;27;20516;-75
2021/12/25 00:38:51;;;;;;;12.33;11.13;;;13.20;80.20;;;-142.21;100.00;112049.66;5132903;27;20893;-75
2021/12/25 00:41:22;;;;;;;13.93;11.77;;;13.10;80.10;;;-142.21;100.00;112049.66;5114031;28;20442;-75
2021/12/25 00:43:51;;;;;;;12.43;11.13;;;13.10;80.30;;;-142.21;100.00;112049.66;5112948;28;20477;-75
2021/12/25 00:46:19;;;;;;;15.93;13.03;;;13.00;80.50;;;-142.21;100.00;112049.66;5110847;28;20813;-75
2021/12/25 00:48:47;;;;;;;15.10;13.10;;;13.00;80.70;;;-142.21;100.00;112049.66;5107142;28;20905;-74
2021/12/25 00:51:14;;;;;;;14.50;12.70;;;13.00;80.40;;;-142.21;100.00;112049.66;5112613;28;20476;-75
2021/12/25 00:53:42;;;;;;;14.27;12.10;;;13.10;80.40;;;-142.21;100.00;112049.66;5112386;28;20441;-74
2021/12/25 00:56:09;;;;;;;13.60;12.33;;;13.10;80.30;;;-142.21;100.00;112049.66;5113653;28;20445;-74
2021/12/25 00:58:37;;;;;;;15.30;13.70;;;13.10;80.30;;;-142.21;100.00;112049.66;5113288;28;20438;-75
2021/12/25 01:01:04;;;;;;;15.90;13.73;;;13.10;80.10;;;-142.21;100.00;112049.66;5111956;28;20463;-75
2021/12/25 01:03:33;;;;;;;20.57;16.53;;;13.10;80.00;;;-142.21;100.00;112049.66;5111570;28;20476;-75
2021/12/25 01:06:01;;;;;;;24.20;20.03;;;13.00;80.20;;;-142.21;100.00;112049.66;5107773;28;21020;-74
2021/12/25 01:08:28;;;;;;;15.93;13.60;;;13.00;80.40;;;-142.21;100.00;112049.66;5113449;28;20441;-75
2021/12/25 01:10:55;;;;;;;31.70;20.63;;;13.00;80.40;;;-142.21;100.00;112049.66;5112595;28;20441;-74
2021/12/25 01:13:27;;;;;;;20.97;15.93;;;13.00;80.20;;;-142.21;100.00;112049.66;5099827;28;20438;-74
2021/12/25 01:16:10;;;;;;;20.00;17.13;;;13.00;80.30;;;-142.21;100.00;112049.66;5119614;27;20461;-74
2021/12/25 01:21:49;;;;;;;21.60;16.53;;;13.00;80.70;;;-142.21;100.00;112049.66;5114167;27;20417;-74
2021/12/25 01:24:35;;;;;;;18.30;14.23;;;12.90;80.80;;;-142.21;100.00;112049.66;5124351;27;20557;-73
2021/12/25 01:27:27;;;;;;;14.07;12.67;;;12.90;80.90;;;-142.21;100.00;112049.66;5099587;27;20446;-74
2021/12/25 01:30:01;;;;;;;18.03;14.50;;;12.90;81.10;;;-142.21;100.00;112049.66;5111899;27;20506;-74
2021/12/25 01:35:36;;;;;;;17.17;15.30;;;12.90;81.40;;;-142.21;100.00;112049.66;5081076;28;20533;-75
2021/12/25 01:38:20;;;;;;;14.50;11.13;;;12.90;81.30;;;-142.21;100.00;112049.66;5108270;27;20968;-74
2021/12/25 01:40:57;;;;;;;11.77;10.60;;;12.80;81.00;;;-142.21;100.00;112049.66;5117201;27;20472;-74
2021/12/25 01:48:53;;;;;;;12.57;11.27;;;12.90;80.50;;;-142.21;100.00;112049.66;5123907;27;20429;-74
2021/12/25 01:51:23;;;;;;;16.17;13.30;;;12.90;80.50;;;-142.21;100.00;112049.66;5113927;27;20469;-74
2021/12/25 01:53:50;;;;;;;18.47;15.53;;;12.90;80.30;;;-142.21;100.00;112049.66;5098096;28;20441;-74
2021/12/25 01:56:18;;;;;;;12.77;11.07;;;12.90;80.50;;;-142.21;100.00;112049.66;5118681;27;20466;-74
2021/12/25 01:58:45;;;;;;;15.50;13.87;;;12.90;80.30;;;-142.21;100.00;112049.66;5116462;27;20452;-74
2021/12/25 02:01:12;;;;;;;15.07;13.23;;;12.90;81.20;;;-142.21;100.00;112049.66;5117942;27;20440;-74
2021/12/25 02:03:41;;;;;;;18.23;15.20;;;13.00;80.70;;;-142.21;100.00;112049.66;5120028;27;20954;-74
2021/12/25 02:06:11;;;;;;;18.33;15.67;;;12.90;81.20;;;-142.21;100.00;112049.66;5112519;28;20445;-74
2021/12/25 02:08:43;;;;;;;26.70;19.50;;;12.90;81.60;;;-142.21;100.00;112049.66;5119514;27;20436;-74
2021/12/25 02:11:11;;;;;;;22.80;17.87;;;12.90;81.90;;;-142.21;100.00;112049.66;5112113;28;20933;-74
2021/12/25 02:13:39;;;;;;;18.27;15.93;;;12.80;82.00;;;-142.21;100.00;112049.66;5109410;28;20446;-74
2021/12/25 02:16:12;;;;;;;16.77;14.97;;;12.80;82.30;;;-142.21;100.00;112049.66;5113068;28;20547;-74
2021/12/25 02:18:57;;;;;;;17.20;15.37;;;12.70;82.60;;;-142.21;100.00;112049.66;5111641;28;20517;-74
2021/12/25 02:21:32;;;;;;;12.90;11.03;;;12.80;82.50;;;-142.21;100.00;112049.66;5111623;28;20456;-74
2021/12/25 02:24:01;;;;;;;11.23;10.13;;;12.80;82.20;;;-142.21;100.00;112049.66;5116257;28;20507;-74
2021/12/25 02:26:28;;;;;;;12.63;11.23;;;12.80;82.10;;;-142.21;100.00;112049.66;5113087;28;20441;-76
2021/12/25 02:28:56;;;;;;;12.63;10.30;;;12.90;82.00;;;-142.21;100.00;112049.66;5120900;28;20452;-76
2021/12/25 02:31:24;;;;;;;12.63;11.17;;;12.90;81.90;;;-142.21;100.00;112049.66;5116489;28;20444;-74
2021/12/25 02:33:52;;;;;;;13.10;11.73;;;12.90;81.70;;;-142.21;100.00;112049.66;5108101;28;20461;-74
2021/12/25 02:36:20;;;;;;;12.07;10.83;;;12.90;81.50;;;-142.21;100.00;112049.66;5112529;28;20810;-75
2021/12/25 02:38:49;;;;;;;14.13;12.63;;;12.90;81.40;;;-142.21;100.00;112049.66;5104045;28;20941;-75
2021/12/25 02:41:18;;;;;;;19.27;14.87;;;13.00;81.70;;;-142.21;100.00;112049.66;5119765;28;20442;-75
2021/12/25 02:43:46;;;;;;;11.30;10.10;;;13.00;81.30;;;-142.21;100.00;112049.66;5107029;28;20478;-75
2021/12/25 02:46:16;;;;;;;11.33;10.23;;;13.00;81.20;;;-142.21;100.00;112049.66;5111766;28;20465;-75
2021/12/25 02:48:44;;;;;;;14.93;13.30;;;13.10;81.50;;;-142.21;100.00;112049.66;5100938;28;20443;-74
2021/12/25 02:51:13;;;;;;;17.37;12.07;;;13.00;81.40;;;-142.21;100.00;112049.66;5111940;28;20533;-74
2021/12/25 02:53:42;;;;;;;19.43;14.00;;;13.10;81.40;;;-142.21;100.00;112049.66;5105829;28;20434;-75
2021/12/25 02:56:11;;;;;;;16.30;14.13;;;13.00;81.50;;;-142.21;100.00;112049.66;5120446;28;20446;-75
2021/12/25 02:58:38;;;;;;;24.47;17.77;;;13.00;81.70;;;-142.21;100.00;112049.66;5121348;28;20436;-75
2021/12/25 03:01:09;;;;;;;17.87;15.93;;;13.00;81.90;;;-142.21;100.00;112049.66;5113747;28;20445;-74
2021/12/25 03:03:37;;;;;;;23.60;17.97;;;13.00;82.80;;;-142.21;100.00;112049.66;5112342;28;20481;-74
2021/12/25 03:06:06;;;;;;;20.30;17.40;;;13.00;82.30;;;-142.21;100.00;112049.66;5111988;28;20453;-74
2021/12/25 03:08:34;;;;;;;15.93;14.33;;;13.00;82.30;;;-142.21;100.00;112049.66;5119750;28;20432;-74
2021/12/25 03:11:03;;;;;;;20.60;17.17;;;12.90;82.30;;;-142.21;100.00;112049.66;5105280;28;20537;-74
2021/12/25 03:13:35;;;;;;;19.93;16.47;;;12.80;82.80;;;-142.21;100.00;112049.66;5109149;28;20495;-73
2021/12/25 03:16:07;;;;;;;21.30;17.30;;;12.80;83.10;;;-142.21;100.00;112049.66;5092136;28;20455;-75
2021/12/25 03:18:42;;;;;;;30.10;20.83;;;12.70;83.40;;;-142.21;100.00;112049.66;5111831;28;20469;-74
2021/12/25 03:21:10;;;;;;;21.80;17.97;;;12.60;84.80;;;-142.21;100.00;112049.66;5111904;28;20448;-74
2021/12/25 03:23:39;;;;;;;27.50;20.30;;;12.60;84.30;;;-142.21;100.00;112049.66;5099710;28;20592;-74
2021/12/25 03:26:09;;;;;;;24.53;18.73;;;12.60;84.70;;;-142.21;100.00;112049.66;5095057;27;20533;-75
2021/12/25 03:28:43;;;;;;;25.63;19.80;;;12.60;84.70;;;-142.21;100.00;112049.66;5117587;27;20464;-74
2021/12/25 03:31:16;;;;;;;34.43;23.53;;;12.60;84.70;;;-142.21;100.00;112049.66;5124546;27;20439;-74
2021/12/25 03:33:46;;;;;;;28.33;21.07;;;12.60;84.80;;;-142.21;100.00;112049.66;5133760;27;20464;-75
2021/12/25 03:36:14;;;;;;;19.43;16.40;;;12.60;84.80;;;-142.21;100.00;112049.66;5079853;28;20473;-75
2021/12/25 03:38:42;;;;;;;28.73;19.77;;;12.70;84.80;;;-142.21;100.00;112049.66;5118836;27;20441;-75
2021/12/25 03:41:10;;;;;;;21.37;18.63;;;12.70;84.70;;;-142.21;100.00;112049.66;5128724;27;20441;-75
2021/12/25 03:43:40;;;;;;;31.50;21.20;;;12.70;84.60;;;-142.21;100.00;112049.66;5118161;27;20575;-75
2021/12/25 03:46:09;;;;;;;25.03;19.13;;;12.70;84.70;;;-142.21;100.00;112049.66;5105728;27;20556;-74
2021/12/25 03:59:41;;;;;;;24.00;18.80;;;12.60;85.80;;;-142.21;100.00;112049.66;5105457;28;20421;-75
2021/12/25 04:02:16;;;;;;;24.93;18.83;;;12.60;85.60;;;-142.21;100.00;112049.66;5109999;27;20475;-75
2021/12/25 04:04:46;;;;;;;21.00;16.30;;;12.60;85.30;;;-142.21;100.00;112049.66;5113842;27;20473;-75
2021/12/25 04:07:28;;;;;;;21.37;16.70;;;12.70;85.30;;;-142.21;100.00;112049.66;5111724;27;20441;-75
2021/12/25 04:09:59;;;;;;;23.80;17.20;;;12.70;85.00;;;-142.21;100.00;112049.66;5107394;27;20442;-75
2021/12/25 04:12:27;;;;;;;19.27;15.67;;;12.80;84.80;;;-142.21;100.00;112049.66;5115532;28;20920;-75
2021/12/25 04:14:55;;;;;;;35.83;20.13;;;12.90;84.60;;;-142.21;100.00;112049.66;5119766;27;20450;-75
2021/12/25 04:17:22;;;;;;;21.87;17.13;;;12.90;84.40;;;-142.21;100.00;112049.66;5121728;27;20545;-75
2021/12/25 04:19:50;;;;;;;16.03;13.70;;;12.90;83.90;;;-142.21;100.00;112049.66;5114589;27;20443;-75
2021/12/25 04:22:23;;;;;;;18.00;15.17;;;13.00;83.80;;;-142.21;100.00;112049.66;5119113;27;20552;-74
2021/12/25 04:24:51;;;;;;;28.03;18.83;;;13.00;83.80;;;-142.21;100.00;112049.66;5118087;27;20559;-75
2021/12/25 04:27:18;;;;;;;18.67;15.73;;;13.00;83.60;;;-142.21;100.00;112049.66;5124844;27;20578;-75
2021/12/25 04:29:50;;;;;;;16.53;14.50;;;13.00;83.40;;;-142.21;100.00;112049.66;5116408;27;20452;-74
2021/12/25 05:02:49;;;;;;;14.87;12.53;;;13.00;83.40;;;-142.21;100.00;112049.66;5108110;27;20430;-74
2021/12/25 05:05:20;;;;;;;16.10;13.80;;;13.00;83.50;;;-142.21;100.00;112049.66;5112457;27;20506;-75
2021/12/25 05:07:47;;;;;;;18.43;14.33;;;13.00;83.60;;;-142.21;100.00;112049.66;5113540;27;20445;-75
2021/12/25 05:10:14;;;;;;;17.10;13.60;;;13.00;84.00;;;-142.21;100.00;112049.66;5112938;27;20801;-74
2021/12/25 05:12:41;;;;;;;19.53;15.30;;;12.90;83.60;;;-142.21;100.00;112049.66;5113712;27;20459;-74
2021/12/25 05:15:09;;;;;;;22.47;16.33;;;13.00;84.00;;;-142.21;100.00;112049.66;5112754;27;20456;-75
2021/12/25 05:17:37;;;;;;;17.37;14.13;;;13.00;84.40;;;-142.21;100.00;112049.66;5126082;27;20524;-75
2021/12/25 05:20:05;;;;;;;19.60;14.90;;;13.00;84.00;;;-142.21;100.00;112049.66;5113307;27;20442;-75
2021/12/25 05:22:34;;;;;;;19.70;14.93;;;13.00;83.60;;;-142.21;100.00;112049.66;5127312;27;20445;-75
2021/12/25 05:25:02;;;;;;;20.20;16.07;;;13.00;84.40;;;-142.21;100.00;112049.66;5116460;27;20976;-75
2021/12/25 05:27:31;;;;;;;18.33;14.87;;;13.00;83.80;;;-142.21;100.00;112049.66;5122210;27;20573;-75
2021/12/25 05:29:58;;;;;;;16.60;14.73;;;13.00;83.90;;;-142.21;100.00;112049.66;5115704;27;20842;-75
2021/12/25 05:32:25;;;;;;;20.47;15.50;;;13.00;83.50;;;-142.21;100.00;112049.66;5129887;27;20487;-75
2021/12/25 05:34:52;;;;;;;21.00;15.30;;;13.00;83.40;;;-142.21;100.00;112049.66;5119430;27;20516;-75
2021/12/25 05:37:19;;;;;;;21.03;16.10;;;13.00;83.70;;;-142.21;100.00;112049.66;5099712;28;20465;-75
2021/12/25 05:39:50;;;;;;;23.60;17.57;;;13.00;84.00;;;-142.21;100.00;112049.66;5117444;27;20509;-75
2021/12/25 05:42:20;;;;;;;17.80;15.13;;;13.00;84.60;;;-142.21;100.00;112049.66;5112367;27;20536;-75
2021/12/25 05:44:47;;;;;;;20.27;16.60;;;13.00;84.60;;;-142.21;100.00;112049.66;5112908;28;20833;-75
2021/12/25 05:47:15;;;;;;;18.53;16.00;;;13.00;84.70;;;-142.21;100.00;112049.66;5118697;27;20448;-74
2021/12/25 05:49:42;;;;;;;22.97;16.87;;;13.00;84.80;;;-142.21;100.00;112049.66;5112614;27;20603;-75
2021/12/25 05:52:09;;;;;;;24.53;17.17;;;13.00;84.80;;;-142.21;100.00;112049.66;5114768;27;20459;-75
2021/12/25 05:54:36;;;;;;;20.10;16.30;;;13.00;85.20;;;-142.21;100.00;112049.66;5127226;27;20442;-74
2021/12/25 05:57:05;;;;;;;23.43;16.37;;;13.00;85.10;;;-142.21;100.00;112049.66;5111444;27;20942;-75
2021/12/25 05:59:33;;;;;;;20.47;16.43;;;13.00;85.40;;;-142.21;100.00;112049.66;5111935;28;20483;-75
2021/12/25 06:02:02;;;;;;;19.23;15.93;;;13.00;85.00;;;-142.21;100.00;112049.66;5111669;28;20953;-74
2021/12/25 06:04:30;;;;;;;22.97;17.93;;;13.00;85.10;;;-142.21;100.00;112049.66;5110772;28;20486;-75
2021/12/25 06:06:57;;;;;;;21.27;17.27;;;13.00;85.10;;;-142.21;100.00;112049.66;5112024;28;20533;-74
2021/12/25 06:09:24;;;;;;;18.50;16.03;;;13.00;85.10;;;-142.21;100.00;112049.66;5111499;28;20529;-75
2021/12/25 06:11:52;;;;;;;21.90;17.83;;;12.90;84.90;;;-142.21;100.00;112049.66;5111984;28;20536;-75
2021/12/25 06:14:21;;;;;;;23.33;18.37;;;12.90;85.40;;;-142.21;100.00;112049.66;5111601;28;20505;-75
2021/12/25 06:16:50;;;;;;;27.53;19.73;;;12.90;85.40;;;-142.21;100.00;112049.66;5111712;28;20499;-75
2021/12/25 06:19:18;;;;;;;23.23;17.97;;;12.90;85.30;;;-142.21;100.00;112049.66;5111473;28;20529;-75
2021/12/25 06:21:46;;;;;;;23.27;18.80;;;12.90;85.10;;;-142.21;100.00;112049.66;5111369;28;20801;-75
2021/12/25 06:24:15;;;;;;;18.63;16.67;;;12.80;85.10;;;-142.21;100.00;112049.66;5111579;28;20572;-74
2021/12/25 06:26:42;;;;;;;21.67;17.93;;;12.80;85.10;;;-142.21;100.00;112049.66;5111153;28;20446;-75
2021/12/25 06:29:10;;;;;;;25.43;18.33;;;12.80;85.20;;;-142.21;100.00;112049.66;5111293;28;20482;-74
2021/12/25 06:31:38;;;;;;;20.07;16.93;;;12.70;85.30;;;-142.21;100.00;112049.66;5110701;28;20807;-75
2021/12/25 06:34:07;;;;;;;25.97;20.13;;;12.80;85.00;;;-142.21;100.00;112049.66;5110635;28;20475;-75
2021/12/25 06:36:34;;;;;;;20.30;17.17;;;12.70;85.00;;;-142.21;100.00;112049.66;5111393;28;20485;-75
2021/12/25 06:39:02;;;;;;;20.40;17.60;;;12.70;85.20;;;-142.21;100.00;112049.66;5110063;28;20811;-75
2021/12/25 06:41:29;;;;;;;22.40;18.20;;;12.70;85.30;;;-142.21;100.00;112049.66;5112090;28;20499;-75
2021/12/25 06:43:57;;;;;;;18.47;16.40;;;12.70;85.30;;;-142.21;100.00;112049.66;5118531;28;20445;-75
2021/12/25 06:46:24;;;;;;;21.80;19.00;;;12.70;85.20;;;-142.21;100.00;112049.66;5130903;28;20448;-74
2021/12/25 06:48:53;;;;;;;24.27;19.60;;;12.70;85.20;;;-142.21;100.00;112049.66;5115037;27;20446;-75
2021/12/25 06:51:21;;;;;;;24.37;19.63;;;12.80;85.30;;;-142.21;100.00;112049.66;5107358;28;20446;-74
2021/12/25 06:53:48;;;;;;;27.03;20.23;;;12.80;85.30;;;-142.21;100.00;112049.66;5111279;28;20537;-75
2021/12/25 06:56:15;;;;;;;22.50;18.00;;;12.80;85.40;;;-142.21;100.00;112049.66;5115939;28;20441;-75
2021/12/25 06:58:43;;;;;;;24.23;18.90;;;12.80;85.40;;;-142.21;100.00;112049.66;5112541;27;20465;-75
2021/12/25 07:01:10;;;;;;;19.97;16.77;;;12.80;86.20;;;-142.21;100.00;112049.66;5123975;27;20444;-75
2021/12/25 07:03:38;;;;;;;20.43;17.17;;;12.80;85.60;;;-142.21;100.00;112049.66;5115266;27;20536;-75
2021/12/25 07:06:06;;;;;;;19.73;16.87;;;12.80;85.60;;;-142.21;100.00;112049.66;5119006;27;20477;-75
2021/12/25 07:08:34;;;;;;;21.00;18.10;;;12.90;85.50;;;-142.21;100.00;112049.66;5118268;27;20498;-75
2021/12/25 07:11:01;;;;;;;23.70;19.27;;;12.90;85.20;;;-142.21;100.00;112049.66;5119734;27;20484;-75
2021/12/25 07:13:28;;;;;;;24.00;18.73;;;12.90;85.30;;;-142.21;100.00;112049.66;5117154;27;20549;-75
2021/12/25 07:15:55;;;;;;;26.00;20.00;;;12.80;85.50;;;-142.21;100.00;112049.66;5129808;27;20485;-75
2021/12/25 07:18:23;;;;;;;22.10;17.97;;;12.80;85.70;;;-142.21;100.00;112049.66;5115856;27;21001;-75
2021/12/25 07:20:51;;;;;;;17.50;15.40;;;12.80;85.90;;;-142.21;100.00;112049.66;5132734;27;20524;-74
2021/12/25 07:23:19;;;;;;;19.43;17.17;;;12.80;85.70;;;-142.21;100.00;112049.66;5114584;27;20449;-74
2021/12/25 07:25:47;;;;;;;18.57;16.00;;;12.90;85.70;;;-142.21;100.00;112049.66;5122677;27;20490;-75
2021/12/25 07:28:14;;;;;;;22.50;18.23;;;12.90;85.50;;;-142.21;100.00;112049.66;5130825;27;20479;-75
2021/12/25 07:30:41;;;;;;;20.97;16.77;;;12.90;85.50;;;-142.21;100.00;112049.66;5114581;27;20481;-74
2021/12/25 07:33:08;;;;;;;23.07;18.37;;;12.80;86.20;;;-142.21;100.00;112049.66;5109235;27;20556;-75
2021/12/25 07:35:36;;;;;;;22.03;17.10;;;12.80;85.40;;;-142.21;100.00;112049.66;5125593;27;20495;-75
2021/12/25 07:38:03;;;;;;;21.23;17.40;;;12.90;85.50;;;-142.21;100.00;112049.66;5122586;27;20447;-75
2021/12/25 07:40:32;;;;;;;23.40;18.30;;;12.90;85.50;;;-142.21;100.00;112049.66;5114349;27;20540;-76
2021/12/25 07:42:59;;;;;;;18.80;16.17;;;12.90;85.50;;;-142.21;100.00;112049.66;5120598;27;20520;-75
2021/12/25 07:45:26;;;;;;;19.83;17.23;;;12.80;85.40;;;-142.21;100.00;112049.66;5114718;27;20914;-75
2021/12/25 07:47:59;;;;;;;18.13;15.00;;;12.80;85.40;;;-142.21;100.00;112049.66;5113856;28;20446;-74
2021/12/25 07:50:28;;;;;;;20.03;17.37;;;12.80;85.90;;;-142.21;100.00;112049.66;5114920;27;20491;-74
2021/12/25 07:52:55;;;;;;;20.93;17.17;;;12.80;86.10;;;-142.21;100.00;112049.66;5121594;27;20453;-75
2021/12/25 07:55:23;;;;;;;19.83;17.17;;;12.80;86.00;;;-142.21;100.00;112049.66;5125867;27;20446;-75
2021/12/25 07:57:52;;;;;;;17.17;15.30;;;12.90;85.90;;;-142.21;100.00;112049.66;5113780;28;20525;-75
2021/12/25 08:00:19;;;;;;;17.77;15.50;;;12.90;85.50;;;-142.21;100.00;112049.66;5114834;27;20437;-75
2021/12/25 08:02:47;;;;;;;18.57;15.57;;;12.90;85.50;;;-142.21;100.00;112049.66;5116939;27;20473;-75
2021/12/25 08:05:15;;;;;;;18.87;16.87;;;12.90;85.50;;;-142.21;100.00;112049.66;5115298;27;20986;-75
2021/12/25 08:07:43;;;;;;;17.03;14.20;;;13.00;85.50;;;-142.21;100.00;112049.66;5124198;27;20529;-75
2021/12/25 08:10:16;;;;;;;17.43;14.10;;;12.90;85.40;;;-142.21;100.00;112049.66;5116819;28;20532;-75
2021/12/25 08:12:47;;;;;;;16.80;14.97;;;12.90;85.50;;;-142.21;100.00;112049.66;5114239;27;20441;-74
2021/12/25 08:15:21;;;;;;;19.23;15.90;;;12.90;85.70;;;-142.21;100.00;112049.66;5114629;27;20883;-75
2021/12/25 08:17:51;;;;;;;17.07;15.17;;;12.90;85.70;;;-142.21;100.00;112049.66;5114869;27;20538;-74
2021/12/25 08:20:19;;;;;;;17.57;14.13;;;12.90;85.50;;;-142.21;100.00;112049.66;5113949;27;20976;-74
2021/12/25 08:22:47;;;;;;;17.03;15.00;;;12.90;85.50;;;-142.21;100.00;112049.66;5117942;27;20447;-74
2021/12/25 08:25:16;;;;;;;16.60;14.83;;;13.00;85.40;;;-142.21;100.00;112049.66;5125143;27;20489;-74
2021/12/25 08:27:46;;;;;;;16.23;14.53;;;13.00;85.30;;;-142.21;100.00;112049.66;5113806;28;20858;-75
2021/12/25 08:30:19;;;;;;;16.50;14.50;;;13.00;85.50;;;-142.21;100.00;112049.66;5114131;27;20484;-75
2021/12/25 08:32:47;;;;;;;18.73;14.43;;;13.00;85.70;;;-142.21;100.00;112049.66;5114724;27;20442;-75
2021/12/25 08:35:17;;;;;;;15.27;13.60;;;13.00;85.60;;;-142.21;100.00;112049.66;5128062;27;20473;-75
2021/12/25 08:37:46;;;;;;;14.70;13.17;;;13.00;85.50;;;-142.21;100.00;112049.66;5114272;27;20464;-74
2021/12/25 08:40:14;;;;;;;15.73;13.77;;;13.10;86.10;;;-142.21;100.00;112049.66;5126813;27;20462;-74
2021/12/25 08:42:47;;;;;;;15.13;13.63;;;13.10;85.40;;;-142.21;100.00;112049.66;5129028;27;20896;-74
2021/12/25 08:48:03;;;;;;;16.40;14.33;;;13.10;85.50;;;-142.21;100.00;112049.66;5120328;27;20921;-74
2021/12/25 08:50:31;;;;;;;13.80;12.40;;;13.10;85.30;;;-142.21;100.00;112049.66;5113467;27;20775;-75
2021/12/25 08:52:59;;;;;;;16.27;13.53;;;13.10;85.60;;;-142.21;100.00;112049.66;5115876;27;20514;-74
2021/12/25 08:55:26;;;;;;;15.57;13.10;;;13.10;85.30;;;-142.21;100.00;112049.66;5118147;27;20441;-74
2021/12/25 08:57:54;;;;;;;14.67;13.10;;;13.30;85.10;;;-142.21;100.00;112049.66;5116617;27;20449;-74
2021/12/25 09:00:22;;;;;;;13.33;11.93;;;13.30;84.90;;;-142.21;100.00;112049.66;5116684;27;20438;-74
2021/12/25 09:02:51;;;;;;;15.27;12.80;;;13.30;85.00;;;-142.21;100.00;112049.66;5112413;27;20449;-75
2021/12/25 09:05:18;;;;;;;13.40;12.00;;;13.30;85.10;;;-142.21;100.00;112049.66;5117284;27;20484;-74
2021/12/25 09:07:47;;;;;;;15.63;12.63;;;13.30;85.00;;;-142.21;100.00;112049.66;5121540;27;20885;-75
2021/12/25 09:10:14;;;;;;;12.90;11.37;;;13.30;84.90;;;-142.21;100.00;112049.66;5123081;27;20452;-75
2021/12/25 09:12:43;;;;;;;13.53;12.20;;;13.30;84.80;;;-142.21;100.00;112049.66;5127590;27;20498;-75
2021/12/25 09:15:11;;;;;;;14.57;12.93;;;13.30;84.70;;;-142.21;100.00;112049.66;5127004;27;20454;-74
2021/12/25 09:17:42;;;;;;;16.17;12.33;;;13.30;84.80;;;-142.21;100.00;112049.66;5112742;28;20449;-74
2021/12/25 09:20:11;;;;;;;13.80;12.10;;;13.30;84.90;;;-142.21;100.00;112049.66;5113809;27;20446;-75
2021/12/25 09:22:38;;;;;;;15.83;12.93;;;13.30;84.80;;;-142.21;100.00;112049.66;5131870;27;20498;-75
2021/12/25 09:25:07;;;;;;;13.60;12.23;;;13.20;84.70;;;-142.21;100.00;112049.66;5120032;27;21004;-74
2021/12/25 09:27:35;;;;;;;15.70;13.23;;;13.20;84.80;;;-142.21;100.00;112049.66;5122351;27;20493;-74
2021/12/25 09:30:04;;;;;;;13.93;12.47;;;13.20;84.80;;;-142.21;100.00;112049.66;5113376;27;20445;-75
2021/12/25 09:32:32;;;;;;;15.20;13.37;;;13.20;85.10;;;-142.21;100.00;112049.66;5116237;27;20536;-74
2021/12/25 09:35:01;;;;;;;14.57;12.97;;;13.20;85.70;;;-142.21;100.00;112049.66;5130504;27;20571;-75
2021/12/25 09:37:30;;;;;;;13.13;11.43;;;13.20;85.70;;;-142.21;100.00;112049.66;5117365;27;20465;-75
2021/12/25 09:39:58;;;;;;;13.27;11.87;;;13.30;85.20;;;-142.21;100.00;112049.66;5113478;28;20451;-75
2021/12/25 09:42:25;;;;;;;15.30;12.03;;;13.30;85.10;;;-142.21;100.00;112049.66;5113403;27;20536;-74
2021/12/25 09:44:53;;;;;;;13.17;11.77;;;13.30;85.00;;;-142.21;100.00;112049.66;5109910;28;20481;-75
2021/12/25 09:47:22;;;;;;;12.73;11.43;;;13.30;85.00;;;-142.21;100.00;112049.66;5112211;28;20436;-74
2021/12/25 09:49:49;;;;;;;13.33;10.33;;;13.30;84.80;;;-142.21;100.00;112049.66;5120910;27;20817;-75
2021/12/25 09:52:18;;;;;;;12.17;10.97;;;13.30;84.40;;;-142.21;100.00;112049.66;5114859;27;20976;-75
2021/12/25 09:54:46;;;;;;;12.73;10.93;;;13.30;84.60;;;-142.21;100.00;112049.66;5113153;27;20448;-75
2021/12/25 09:57:14;;;;;;;12.60;11.40;;;13.40;84.70;;;-142.21;100.00;112049.66;5113390;27;20457;-75
2021/12/25 09:59:42;;;;;;;13.20;11.07;;;13.40;85.00;;;-142.21;100.00;112049.66;5114379;27;20449;-75
2021/12/25 10:02:14;;;;;;;13.37;10.63;;;13.40;84.80;;;-142.21;100.00;112049.66;5113192;27;20457;-75
2021/12/25 10:04:47;;;;;;;16.57;11.17;;;13.40;84.90;;;-142.21;100.00;112049.66;5110904;28;20487;-76
2021/12/25 10:07:28;;;;;;;11.50;9.43;;;13.40;84.80;;;-142.21;100.00;112049.66;5111485;28;20513;-75
2021/12/25 10:10:01;;;;;;;11.83;10.43;;;13.40;84.80;;;-142.21;100.00;112049.66;5112248;27;21245;-75
2021/12/25 10:12:36;;;;;;;13.30;10.60;;;13.50;84.60;;;-142.21;100.00;112049.66;5108444;28;20487;-76
2021/12/25 10:15:08;;;;;;;12.63;10.13;;;13.50;84.60;;;-142.21;100.00;112049.66;5111441;28;20483;-75
2021/12/25 10:17:42;;;;;;;11.70;10.60;;;13.50;84.50;;;-142.21;100.00;112049.66;5107956;28;20434;-75
2021/12/25 10:20:13;;;;;;;11.67;10.13;;;13.50;84.20;;;-142.21;100.00;112049.66;5118844;28;20437;-76
2021/12/25 10:23:13;;;;;;;10.67;9.63;;;13.50;84.50;;;-142.21;100.00;112049.66;5131686;28;20523;-75
2021/12/25 10:25:48;;;;;;;10.77;9.77;;;13.50;84.40;;;-142.21;100.00;112049.66;5056653;28;20670;-76
2021/12/25 10:28:19;;;;;;;12.33;10.97;;;13.50;84.20;;;-142.21;100.00;112049.66;5112965;28;20465;-75
2021/12/25 10:30:55;;;;;;;11.07;9.97;;;13.50;84.30;;;-142.21;100.00;112049.66;5108553;28;20522;-74
2021/12/25 10:33:27;;;;;;;10.17;9.17;;;13.50;84.50;;;-142.21;100.00;112049.66;5109463;28;20480;-75
2021/12/25 10:35:57;;;;;;;11.43;10.10;;;13.50;84.50;;;-142.21;100.00;112049.66;5105183;27;20557;-74
2021/12/25 10:38:25;;;;;;;11.37;9.87;;;13.50;84.50;;;-142.21;100.00;112049.66;5115390;27;20449;-75
2021/12/25 10:41:19;;;;;;;11.37;10.17;;;13.50;84.50;;;-142.21;100.00;112049.66;5107934;27;20485;-74
2021/12/25 10:43:49;;;;;;;10.57;8.60;;;13.50;84.40;;;-142.21;100.00;112049.66;5121247;27;20452;-75
2021/12/25 10:46:17;;;;;;;11.37;10.17;;;13.50;84.50;;;-142.21;100.00;112049.66;5113783;28;20574;-75